sensor_id;sensor_type;location;lat;lon;timestamp;pressure;altitude;pressure_sealevel;temperature;humidity
62038;BME280;47991;42.974;12.082;2023-09-08T00:02:26;97947.20;;;17.33;63.61
62038;BME280;47991;42.974;12.082;2023-09-08T00:04:54;97939.33;;;17.36;63.40
62038;BME280;47991;42.974;12.082;2023-09-08T00:07:21;97941.87;;;17.43;63.46
62038;BME280;47991;42.974;12.082;2023-09-08T00:09:48;97939.64;;;17.47;63.44
62038;BME280;47991;42.974;12.082;2023-09-08T00:12:15;97941.89;;;17.55;63.43
62038;BME280;47991;42.974;12.082;2023-09-08T00:14:42;97948.35;;;17.58;63.22
62038;BME280;47991;42.974;12.082;2023-09-08T00:17:09;97949.36;;;17.60;64.15
62038;BME280;47991;42.974;12.082;2023-09-08T00:19:36;97948.79;;;17.56;64.34
62038;BME280;47991;42.974;12.082;2023-09-08T00:22:03;97952.59;;;17.56;64.28
62038;BME280;47991;42.974;12.082;2023-09-08T00:24:32;97947.38;;;17.56;63.87
62038;BME280;47991;42.974;12.082;2023-09-08T00:26:59;97950.13;;;17.52;63.69
62038;BME280;47991;42.974;12.082;2023-09-08T00:29:26;97943.66;;;17.39;64.09
62038;BME280;47991;42.974;12.082;2023-09-08T00:31:53;97942.65;;;17.31;63.98
62038;BME280;47991;42.974;12.082;2023-09-08T00:34:20;97943.53;;;17.18;64.35
62038;BME280;47991;42.974;12.082;2023-09-08T00:36:47;97942.95;;;17.08;65.22
62038;BME280;47991;42.974;12.082;2023-09-08T00:39:14;97948.39;;;17.03;64.96
62038;BME280;47991;42.974;12.082;2023-09-08T00:41:40;97944.96;;;17.00;65.70
62038;BME280;47991;42.974;12.082;2023-09-08T00:44:07;97948.65;;;16.98;65.50
62038;BME280;47991;42.974;12.082;2023-09-08T00:46:35;97945.17;;;16.99;65.53
62038;BME280;47991;42.974;12.082;2023-09-08T00:49:03;97948.92;;;17.03;65.37
62038;BME280;47991;42.974;12.082;2023-09-08T00:51:30;97948.23;;;16.92;65.93
62038;BME280;47991;42.974;12.082;2023-09-08T00:53:57;97945.00;;;16.78;66.82
62038;BME280;47991;42.974;12.082;2023-09-08T00:56:24;97946.70;;;16.69;67.15
62038;BME280;47991;42.974;12.082;2023-09-08T00:58:51;97952.02;;;16.70;67.17
62038;BME280;47991;42.974;12.082;2023-09-08T01:01:18;97947.73;;;16.73;67.13
62038;BME280;47991;42.974;12.082;2023-09-08T01:03:46;97950.95;;;16.77;67.27
62038;BME280;47991;42.974;12.082;2023-09-08T01:06:13;97952.65;;;16.82;67.31
62038;BME280;47991;42.974;12.082;2023-09-08T01:08:41;97955.81;;;16.87;67.41
62038;BME280;47991;42.974;12.082;2023-09-08T01:11:10;97956.27;;;16.89;67.69
62038;BME280;47991;42.974;12.082;2023-09-08T01:13:37;97953.27;;;16.88;67.71
62038;BME280;47991;42.974;12.082;2023-09-08T01:16:04;97951.44;;;16.81;68.19
62038;BME280;47991;42.974;12.082;2023-09-08T01:18:31;97952.02;;;16.77;68.70
62038;BME280;47991;42.974;12.082;2023-09-08T01:27:35;97952.27;;;16.82;68.75
62038;BME280;47991;42.974;12.082;2023-09-08T01:30:04;97950.28;;;16.87;68.39
62038;BME280;47991;42.974;12.082;2023-09-08T01:32:32;97946.64;;;16.89;68.39
62038;BME280;47991;42.974;12.082;2023-09-08T01:35:00;97945.36;;;16.85;68.12
62038;BME280;47991;42.974;12.082;2023-09-08T01:37:27;97946.43;;;16.74;69.11
62038;BME280;47991;42.974;12.082;2023-09-08T01:39:54;97950.14;;;16.64;69.33
62038;BME280;47991;42.974;12.082;2023-09-08T01:42:21;97951.98;;;16.59;69.80
62038;BME280;47991;42.974;12.082;2023-09-08T01:44:47;97946.91;;;16.57;69.97
62038;BME280;47991;42.974;12.082;2023-09-08T01:47:15;97950.24;;;16.62;70.25
62038;BME280;47991;42.974;12.082;2023-09-08T01:49:42;97946.15;;;16.65;70.12
62038;BME280;47991;42.974;12.082;2023-09-08T01:52:09;97943.16;;;16.65;69.94
62038;BME280;47991;42.974;12.082;2023-09-08T01:54:36;97945.44;;;16.66;69.72
62038;BME280;47991;42.974;12.082;2023-09-08T01:57:03;97940.16;;;16.64;69.74
62038;BME280;47991;42.974;12.082;2023-09-08T01:59:30;97940.94;;;16.66;69.63
62038;BME280;47991;42.974;12.082;2023-09-08T02:01:57;97932.74;;;16.66;69.72
62038;BME280;47991;42.974;12.082;2023-09-08T02:04:24;97936.14;;;16.59;70.24
62038;BME280;47991;42.974;12.082;2023-09-08T02:06:51;97940.73;;;16.49;70.77
62038;BME280;47991;42.974;12.082;2023-09-08T02:09:17;97936.58;;;16.42;71.43
62038;BME280;47991;42.974;12.082;2023-09-08T02:11:44;97934.81;;;16.42;72.60
62038;BME280;47991;42.974;12.082;2023-09-08T02:14:11;97935.73;;;16.45;71.76
62038;BME280;47991;42.974;12.082;2023-09-08T02:16:38;97933.70;;;16.43;72.25
62038;BME280;47991;42.974;12.082;2023-09-08T02:19:04;97932.05;;;16.40;72.25
62038;BME280;47991;42.974;12.082;2023-09-08T02:21:31;97935.28;;;16.40;72.03
62038;BME280;47991;42.974;12.082;2023-09-08T02:23:58;97935.36;;;16.38;72.76
62038;BME280;47991;42.974;12.082;2023-09-08T02:26:25;97938.07;;;16.38;73.22
62038;BME280;47991;42.974;12.082;2023-09-08T02:28:54;97940.52;;;16.42;72.69
62038;BME280;47991;42.974;12.082;2023-09-08T02:31:21;97937.70;;;16.41;72.21
62038;BME280;47991;42.974;12.082;2023-09-08T02:33:47;97938.25;;;16.45;72.21
62038;BME280;47991;42.974;12.082;2023-09-08T02:36:14;97934.44;;;16.42;72.30
62038;BME280;47991;42.974;12.082;2023-09-08T02:38:41;97937.52;;;16.35;72.53
62038;BME280;47991;42.974;12.082;2023-09-08T02:41:08;97935.52;;;16.31;72.96
62038;BME280;47991;42.974;12.082;2023-09-08T02:43:34;97928.50;;;16.40;73.33
62038;BME280;47991;42.974;12.082;2023-09-08T02:46:01;97932.40;;;16.48;73.34
62038;BME280;47991;42.974;12.082;2023-09-08T02:48:28;97926.94;;;16.50;73.17
62038;BME280;47991;42.974;12.082;2023-09-08T02:50:55;97930.39;;;16.56;73.11
62038;BME280;47991;42.974;12.082;2023-09-08T02:53:22;97925.33;;;16.60;72.96
62038;BME280;47991;42.974;12.082;2023-09-08T02:55:49;97929.29;;;16.56;73.64
62038;BME280;47991;42.974;12.082;2023-09-08T02:58:16;97925.05;;;16.52;72.95
62038;BME280;47991;42.974;12.082;2023-09-08T03:00:44;97926.83;;;16.52;73.48
62038;BME280;47991;42.974;12.082;2023-09-08T03:03:11;97924.46;;;16.50;73.42
62038;BME280;47991;42.974;12.082;2023-09-08T03:05:38;97923.14;;;16.55;74.10
62038;BME280;47991;42.974;12.082;2023-09-08T03:08:05;97920.37;;;16.67;73.71
62038;BME280;47991;42.974;12.082;2023-09-08T03:10:33;97918.88;;;16.72;73.96
62038;BME280;47991;42.974;12.082;2023-09-08T03:13:04;97916.45;;;16.77;74.12
62038;BME280;47991;42.974;12.082;2023-09-08T03:15:31;97915.20;;;16.85;74.21
62038;BME280;47991;42.974;12.082;2023-09-08T03:17:58;97914.51;;;16.88;74.04
62038;BME280;47991;42.974;12.082;2023-09-08T03:20:25;97913.52;;;16.97;73.57
62038;BME280;47991;42.974;12.082;2023-09-08T03:22:52;97915.21;;;17.02;73.51
62038;BME280;47991;42.974;12.082;2023-09-08T03:25:19;97911.70;;;17.08;73.46
62038;BME280;47991;42.974;12.082;2023-09-08T03:27:46;97905.23;;;17.12;73.73
62038;BME280;47991;42.974;12.082;2023-09-08T03:30:13;97909.61;;;17.14;73.78
62038;BME280;47991;42.974;12.082;2023-09-08T03:32:40;97908.08;;;17.19;73.62
62038;BME280;47991;42.974;12.082;2023-09-08T03:35:08;97909.96;;;17.24;73.35
62038;BME280;47991;42.974;12.082;2023-09-08T03:37:35;97911.17;;;17.31;73.27
62038;BME280;47991;42.974;12.082;2023-09-08T03:40:03;97907.17;;;17.36;73.10
62038;BME280;47991;42.974;12.082;2023-09-08T03:42:33;97908.74;;;17.37;73.41
62038;BME280;47991;42.974;12.082;2023-09-08T03:45:01;97911.65;;;17.39;73.15
62038;BME280;47991;42.974;12.082;2023-09-08T03:47:28;97913.20;;;17.41;73.02
62038;BME280;47991;42.974;12.082;2023-09-08T03:49:55;97911.59;;;17.44;73.27
62038;BME280;47991;42.974;12.082;2023-09-08T03:52:21;97909.81;;;17.44;73.16
62038;BME280;47991;42.974;12.082;2023-09-08T03:54:49;97907.48;;;17.44;72.90
62038;BME280;47991;42.974;12.082;2023-09-08T03:57:16;97907.57;;;17.45;73.02
62038;BME280;47991;42.974;12.082;2023-09-08T03:59:43;97907.38;;;17.49;72.85
62038;BME280;47991;42.974;12.082;2023-09-08T04:02:10;97906.23;;;17.50;72.80
62038;BME280;47991;42.974;12.082;2023-09-08T04:04:37;97903.36;;;17.54;72.60
62038;BME280;47991;42.974;12.082;2023-09-08T04:07:04;97901.89;;;17.48;72.88
62038;BME280;47991;42.974;12.082;2023-09-08T04:09:30;97903.97;;;17.36;73.75
62038;BME280;47991;42.974;12.082;2023-09-08T04:11:58;97900.35;;;17.27;73.72
62038;BME280;47991;42.974;12.082;2023-09-08T04:14:25;97905.29;;;17.28;73.27
62038;BME280;47991;42.974;12.082;2023-09-08T04:16:54;97907.21;;;17.22;73.39
62038;BME280;47991;42.974;12.082;2023-09-08T04:19:21;97902.61;;;17.11;73.52
62038;BME280;47991;42.974;12.082;2023-09-08T04:21:47;97900.92;;;17.09;73.44
62038;BME280;47991;42.974;12.082;2023-09-08T04:24:14;97896.04;;;17.04;73.63
62038;BME280;47991;42.974;12.082;2023-09-08T04:26:41;97900.15;;;17.04;73.95
62038;BME280;47991;42.974;12.082;2023-09-08T04:29:08;97896.70;;;17.11;74.50
62038;BME280;47991;42.974;12.082;2023-09-08T04:31:34;97896.24;;;17.10;73.98
62038;BME280;47991;42.974;12.082;2023-09-08T04:34:01;97896.95;;;17.07;74.07
62038;BME280;47991;42.974;12.082;2023-09-08T04:36:28;97897.05;;;17.04;73.89
62038;BME280;47991;42.974;12.082;2023-09-08T04:38:57;97900.69;;;17.04;73.99
62038;BME280;47991;42.974;12.082;2023-09-08T04:41:23;97899.20;;;17.04;75.05
62038;BME280;47991;42.974;12.082;2023-09-08T04:43:50;97893.20;;;17.06;74.75
62038;BME280;47991;42.974;12.082;2023-09-08T04:46:17;97895.94;;;17.12;74.52
62038;BME280;47991;42.974;12.082;2023-09-08T04:48:44;97895.88;;;17.10;74.43
62038;BME280;47991;42.974;12.082;2023-09-08T04:51:11;97896.75;;;17.07;74.07
62038;BME280;47991;42.974;12.082;2023-09-08T04:53:38;97899.73;;;17.05;74.07
62038;BME280;47991;42.974;12.082;2023-09-08T04:56:05;97898.59;;;17.06;73.88
62038;BME280;47991;42.974;12.082;2023-09-08T04:58:31;97899.52;;;17.12;73.72
62038;BME280;47991;42.974;12.082;2023-09-08T05:00:58;97902.54;;;17.19;74.12
62038;BME280;47991;42.974;12.082;2023-09-08T05:03:25;97907.29;;;17.47;73.84
62038;BME280;47991;42.974;12.082;2023-09-08T05:05:52;97903.55;;;17.90;72.76
62038;BME280;47991;42.974;12.082;2023-09-08T05:08:19;97906.03;;;18.41;71.57
62038;BME280;47991;42.974;12.082;2023-09-08T05:10:46;97905.64;;;19.00;70.44
62038;BME280;47991;42.974;12.082;2023-09-08T05:13:13;97907.74;;;19.50;68.35
62038;BME280;47991;42.974;12.082;2023-09-08T05:15:40;97910.33;;;19.92;67.16
62038;BME280;47991;42.974;12.082;2023-09-08T05:18:09;97914.15;;;20.31;64.40
62038;BME280;47991;42.974;12.082;2023-09-08T05:20:35;97908.34;;;20.83;63.73
62038;BME280;47991;42.974;12.082;2023-09-08T05:23:02;97907.23;;;21.46;61.98
62038;BME280;47991;42.974;12.082;2023-09-08T05:25:29;97905.20;;;22.01;60.68
62038;BME280;47991;42.974;12.082;2023-09-08T05:27:56;97901.77;;;22.47;59.22
62038;BME280;47991;42.974;12.082;2023-09-08T05:30:23;97901.36;;;22.96;57.31
62038;BME280;47991;42.974;12.082;2023-09-08T05:32:50;97898.58;;;23.55;56.07
62038;BME280;47991;42.974;12.082;2023-09-08T05:35:17;97904.42;;;24.13;54.12
62038;BME280;47991;42.974;12.082;2023-09-08T05:37:44;97908.96;;;24.40;54.07
62038;BME280;47991;42.974;12.082;2023-09-08T05:40:10;97905.80;;;24.93;52.90
62038;BME280;47991;42.974;12.082;2023-09-08T05:42:37;97906.70;;;25.61;51.65
62038;BME280;47991;42.974;12.082;2023-09-08T05:45:05;97909.20;;;26.13;50.65
62038;BME280;47991;42.974;12.082;2023-09-08T05:47:32;97908.29;;;26.65;49.40
62038;BME280;47991;42.974;12.082;2023-09-08T05:49:58;97905.69;;;27.13;48.71
62038;BME280;47991;42.974;12.082;2023-09-08T05:52:25;97902.16;;;27.79;48.15
62038;BME280;47991;42.974;12.082;2023-09-08T05:54:54;97907.55;;;28.15;46.27
62038;BME280;47991;42.974;12.082;2023-09-08T05:57:21;97908.65;;;28.28;45.97
62038;BME280;47991;42.974;12.082;2023-09-08T05:59:48;97905.93;;;28.70;45.65
62038;BME280;47991;42.974;12.082;2023-09-08T06:02:14;97909.68;;;29.19;45.38
62038;BME280;47991;42.974;12.082;2023-09-08T06:04:41;97905.85;;;29.69;44.16
62038;BME280;47991;42.974;12.082;2023-09-08T06:07:08;97904.25;;;30.09;43.65
62038;BME280;47991;42.974;12.082;2023-09-08T06:09:35;97903.02;;;30.25;41.83
62038;BME280;47991;42.974;12.082;2023-09-08T06:12:02;97909.31;;;30.75;41.81
62038;BME280;47991;42.974;12.082;2023-09-08T06:14:29;97909.51;;;30.84;42.41
62038;BME280;47991;42.974;12.082;2023-09-08T06:16:56;97909.83;;;30.37;42.94
62038;BME280;47991;42.974;12.082;2023-09-08T06:19:23;97910.92;;;29.90;44.22
62038;BME280;47991;42.974;12.082;2023-09-08T06:21:50;97915.20;;;29.86;44.67
62038;BME280;47991;42.974;12.082;2023-09-08T06:24:16;97912.23;;;30.42;42.37
62038;BME280;47991;42.974;12.082;2023-09-08T06:26:43;97909.83;;;31.04;40.94
62038;BME280;47991;42.974;12.082;2023-09-08T06:29:10;97908.50;;;31.36;39.85
62038;BME280;47991;42.974;12.082;2023-09-08T06:31:37;97906.54;;;31.30;40.74
62038;BME280;47991;42.974;12.082;2023-09-08T06:34:04;97908.91;;;31.04;39.73
62038;BME280;47991;42.974;12.082;2023-09-08T06:36:30;97911.75;;;30.11;40.79
62038;BME280;47991;42.974;12.082;2023-09-08T06:38:57;97914.26;;;29.63;42.56
62038;BME280;47991;42.974;12.082;2023-09-08T06:41:24;97915.13;;;29.72;41.53
62038;BME280;47991;42.974;12.082;2023-09-08T06:43:54;97915.77;;;29.84;41.71
62038;BME280;47991;42.974;12.082;2023-09-08T06:46:21;97919.66;;;30.40;40.33
62038;BME280;47991;42.974;12.082;2023-09-08T06:48:48;97915.41;;;31.08;39.76
62038;BME280;47991;42.974;12.082;2023-09-08T06:51:14;97915.38;;;31.25;39.20
62038;BME280;47991;42.974;12.082;2023-09-08T06:53:43;97916.64;;;31.17;39.60
62038;BME280;47991;42.974;12.082;2023-09-08T06:56:10;97917.36;;;30.01;41.31
62038;BME280;47991;42.974;12.082;2023-09-08T06:58:36;97922.08;;;28.81;43.12
62038;BME280;47991;42.974;12.082;2023-09-08T07:01:03;97918.05;;;27.74;45.47
62038;BME280;47991;42.974;12.082;2023-09-08T07:03:30;97925.10;;;26.77;47.31
62038;BME280;47991;42.974;12.082;2023-09-08T07:06:03;97926.36;;;26.03;49.14
62038;BME280;47991;42.974;12.082;2023-09-08T07:08:30;97925.25;;;25.60;50.75
62038;BME280;47991;42.974;12.082;2023-09-08T07:10:57;97927.32;;;25.23;51.11
62038;BME280;47991;42.974;12.082;2023-09-08T07:13:24;97928.70;;;24.96;52.07
62038;BME280;47991;42.974;12.082;2023-09-08T07:15:50;97932.02;;;24.76;52.92
62038;BME280;47991;42.974;12.082;2023-09-08T07:18:17;97932.67;;;24.57;52.80
62038;BME280;47991;42.974;12.082;2023-09-08T07:20:47;97931.48;;;24.65;53.01
62038;BME280;47991;42.974;12.082;2023-09-08T07:23:18;97933.40;;;24.79;53.32
62038;BME280;47991;42.974;12.082;2023-09-08T07:25:48;97935.50;;;24.69;53.13
62038;BME280;47991;42.974;12.082;2023-09-08T07:28:16;97939.61;;;24.68;53.37
62038;BME280;47991;42.974;12.082;2023-09-08T07:30:43;97938.82;;;25.03;52.00
62038;BME280;47991;42.974;12.082;2023-09-08T07:33:10;97938.77;;;25.25;51.75
62038;BME280;47991;42.974;12.082;2023-09-08T07:35:38;97938.83;;;25.41;50.65
62038;BME280;47991;42.974;12.082;2023-09-08T07:38:06;97935.84;;;25.57;50.88
62038;BME280;47991;42.974;12.082;2023-09-08T07:40:35;97938.73;;;25.55;51.77
62038;BME280;47991;42.974;12.082;2023-09-08T07:43:02;97937.55;;;25.60;50.76
62038;BME280;47991;42.974;12.082;2023-09-08T07:45:29;97941.79;;;25.59;51.05
62038;BME280;47991;42.974;12.082;2023-09-08T07:47:55;97944.33;;;25.38;51.17
62038;BME280;47991;42.974;12.082;2023-09-08T07:50:24;97940.09;;;25.41;51.32
62038;BME280;47991;42.974;12.082;2023-09-08T07:52:53;97943.30;;;25.20;51.27
62038;BME280;47991;42.974;12.082;2023-09-08T07:55:21;97946.04;;;25.27;51.71
62038;BME280;47991;42.974;12.082;2023-09-08T07:57:54;97947.09;;;25.29;51.34
62038;BME280;47991;42.974;12.082;2023-09-08T08:00:21;97942.38;;;25.50;51.23
62038;BME280;47991;42.974;12.082;2023-09-08T08:02:54;97940.39;;;25.61;50.90
62038;BME280;47991;42.974;12.082;2023-09-08T08:05:23;97942.06;;;25.50;50.44
62038;BME280;47991;42.974;12.082;2023-09-08T08:07:50;97943.16;;;25.35;51.00
62038;BME280;47991;42.974;12.082;2023-09-08T08:10:17;97944.10;;;25.35;50.72
62038;BME280;47991;42.974;12.082;2023-09-08T08:12:44;97947.02;;;25.49;50.49
62038;BME280;47991;42.974;12.082;2023-09-08T08:15:11;97947.55;;;25.70;50.18
62038;BME280;47991;42.974;12.082;2023-09-08T08:17:39;97947.19;;;25.72;50.22
62038;BME280;47991;42.974;12.082;2023-09-08T08:20:08;97946.46;;;25.89;49.56
62038;BME280;47991;42.974;12.082;2023-09-08T08:22:37;97945.09;;;25.94;49.38
62038;BME280;47991;42.974;12.082;2023-09-08T08:25:04;97942.65;;;26.05;49.43
62038;BME280;47991;42.974;12.082;2023-09-08T08:27:31;97941.36;;;26.24;49.05
62038;BME280;47991;42.974;12.082;2023-09-08T08:30:00;97945.55;;;26.22;48.28
62038;BME280;47991;42.974;12.082;2023-09-08T08:32:28;97942.98;;;26.26;48.12
62038;BME280;47991;42.974;12.082;2023-09-08T08:34:55;97944.48;;;26.46;47.66
62038;BME280;47991;42.974;12.082;2023-09-08T08:37:23;97944.44;;;26.52;47.19
62038;BME280;47991;42.974;12.082;2023-09-08T08:39:50;97945.81;;;26.51;46.95
62038;BME280;47991;42.974;12.082;2023-09-08T08:42:16;97943.49;;;26.49;46.85
62038;BME280;47991;42.974;12.082;2023-09-08T08:44:44;97942.23;;;26.65;47.03
62038;BME280;47991;42.974;12.082;2023-09-08T08:47:13;97942.17;;;26.83;46.45
62038;BME280;47991;42.974;12.082;2023-09-08T08:49:43;97941.13;;;26.93;46.37
62038;BME280;47991;42.974;12.082;2023-09-08T08:52:14;97936.58;;;27.01;45.66
62038;BME280;47991;42.974;12.082;2023-09-08T08:54:41;97933.48;;;27.01;45.80
62038;BME280;47991;42.974;12.082;2023-09-08T08:57:09;97932.45;;;27.10;45.36
62038;BME280;47991;42.974;12.082;2023-09-08T08:59:38;97927.25;;;27.11;45.38
62038;BME280;47991;42.974;12.082;2023-09-08T09:02:05;97920.02;;;27.24;45.26
62038;BME280;47991;42.974;12.082;2023-09-08T09:04:32;97925.23;;;27.45;44.31
62038;BME280;47991;42.974;12.082;2023-09-08T09:06:59;97922.33;;;27.23;43.98
62038;BME280;47991;42.974;12.082;2023-09-08T09:09:28;97920.70;;;27.50;43.68
62038;BME280;47991;42.974;12.082;2023-09-08T09:11:55;97919.05;;;27.45;42.51
62038;BME280;47991;42.974;12.082;2023-09-08T09:14:22;97920.32;;;27.62;42.74
62038;BME280;47991;42.974;12.082;2023-09-08T09:16:50;97917.81;;;27.56;42.59
62038;BME280;47991;42.974;12.082;2023-09-08T09:19:21;97920.59;;;27.70;42.46
62038;BME280;47991;42.974;12.082;2023-09-08T09:21:52;97916.73;;;27.80;42.66
62038;BME280;47991;42.974;12.082;2023-09-08T09:27:00;97924.30;;;28.00;41.92
62038;BME280;47991;42.974;12.082;2023-09-08T09:29:28;97918.52;;;28.09;41.47
62038;BME280;47991;42.974;12.082;2023-09-08T09:31:57;97917.25;;;28.25;41.23
62038;BME280;47991;42.974;12.082;2023-09-08T09:34:25;97915.20;;;28.28;40.90
62038;BME280;47991;42.974;12.082;2023-09-08T09:36:52;97913.41;;;27.96;41.59
62038;BME280;47991;42.974;12.082;2023-09-08T09:39:20;97910.42;;;28.28;40.99
62038;BME280;47991;42.974;12.082;2023-09-08T09:41:48;97912.98;;;28.35;40.27
62038;BME280;47991;42.974;12.082;2023-09-08T09:44:16;97910.58;;;28.53;40.24
62038;BME280;47991;42.974;12.082;2023-09-08T09:46:44;97911.84;;;28.67;39.71
62038;BME280;47991;42.974;12.082;2023-09-08T09:49:14;97915.21;;;28.44;40.14
62038;BME280;47991;42.974;12.082;2023-09-08T09:51:48;97910.96;;;28.76;39.67
62038;BME280;47991;42.974;12.082;2023-09-08T09:54:16;97909.19;;;29.08;38.92
62038;BME280;47991;42.974;12.082;2023-09-08T09:56:44;97906.52;;;28.84;37.96
62038;BME280;47991;42.974;12.082;2023-09-08T09:59:12;97909.96;;;28.72;38.38
62038;BME280;47991;42.974;12.082;2023-09-08T10:01:41;97910.48;;;28.83;38.26
62038;BME280;47991;42.974;12.082;2023-09-08T10:04:09;97915.57;;;28.76;38.04
62038;BME280;47991;42.974;12.082;2023-09-08T10:06:39;97911.11;;;28.87;38.52
62038;BME280;47991;42.974;12.082;2023-09-08T10:09:06;97908.16;;;29.17;37.82
62038;BME280;47991;42.974;12.082;2023-09-08T10:11:47;97903.45;;;29.52;38.13
62038;BME280;47991;42.974;12.082;2023-09-08T10:14:15;97904.25;;;29.70;37.30
62038;BME280;47991;42.974;12.082;2023-09-08T10:16:44;97907.89;;;29.87;36.39
62038;BME280;47991;42.974;12.082;2023-09-08T10:19:16;97902.20;;;29.74;35.98
62038;BME280;47991;42.974;12.082;2023-09-08T10:21:47;97900.93;;;29.78;36.09
62038;BME280;47991;42.974;12.082;2023-09-08T10:24:50;97896.39;;;29.60;36.32
62038;BME280;47991;42.974;12.082;2023-09-08T10:27:10;97897.71;;;29.75;36.27
62038;BME280;47991;42.974;12.082;2023-09-08T10:29:39;97898.75;;;29.74;35.84
62038;BME280;47991;42.974;12.082;2023-09-08T10:32:08;97894.11;;;29.24;35.33
62038;BME280;47991;42.974;12.082;2023-09-08T10:34:36;97894.77;;;29.51;35.34
62038;BME280;47991;42.974;12.082;2023-09-08T10:37:25;97892.91;;;29.89;34.60
62038;BME280;47991;42.974;12.082;2023-09-08T10:39:56;97892.66;;;30.01;34.27
62038;BME280;47991;42.974;12.082;2023-09-08T10:42:43;97895.16;;;30.20;33.96
62038;BME280;47991;42.974;12.082;2023-09-08T10:45:18;97891.02;;;30.27;33.90
62038;BME280;47991;42.974;12.082;2023-09-08T10:50:19;97886.33;;;29.76;34.87
62038;BME280;47991;42.974;12.082;2023-09-08T10:53:25;97882.73;;;29.93;35.01
62038;BME280;47991;42.974;12.082;2023-09-08T10:55:52;97879.36;;;30.10;34.27
62038;BME280;47991;42.974;12.082;2023-09-08T10:58:29;97877.77;;;30.22;34.25
62038;BME280;47991;42.974;12.082;2023-09-08T11:00:59;97877.84;;;30.10;34.03
62038;BME280;47991;42.974;12.082;2023-09-08T11:03:43;97878.36;;;29.71;34.26
62038;BME280;47991;42.974;12.082;2023-09-08T11:06:11;97876.06;;;29.82;34.41
62038;BME280;47991;42.974;12.082;2023-09-08T11:08:41;97872.73;;;30.15;34.68
62038;BME280;47991;42.974;12.082;2023-09-08T11:11:14;97867.61;;;30.38;34.02
62038;BME280;47991;42.974;12.082;2023-09-08T11:13:44;97871.58;;;30.30;34.00
62038;BME280;47991;42.974;12.082;2023-09-08T11:16:14;97871.06;;;29.49;34.76
62038;BME280;47991;42.974;12.082;2023-09-08T11:18:43;97874.67;;;29.85;35.02
62038;BME280;47991;42.974;12.082;2023-09-08T11:21:10;97872.75;;;30.24;34.29
62038;BME280;47991;42.974;12.082;2023-09-08T11:23:37;97870.19;;;30.31;33.87
62038;BME280;47991;42.974;12.082;2023-09-08T11:26:06;97872.16;;;29.90;33.51
62038;BME280;47991;42.974;12.082;2023-09-08T11:28:33;97865.37;;;29.69;33.80
62038;BME280;47991;42.974;12.082;2023-09-08T11:31:01;97861.61;;;29.65;34.01
62038;BME280;47991;42.974;12.082;2023-09-08T11:33:34;97864.05;;;29.73;34.48
62038;BME280;47991;42.974;12.082;2023-09-08T11:36:14;97864.81;;;29.89;33.89
62038;BME280;47991;42.974;12.082;2023-09-08T11:38:59;97862.73;;;29.89;33.69
62038;BME280;47991;42.974;12.082;2023-09-08T11:41:27;97860.79;;;29.73;33.51
62038;BME280;47991;42.974;12.082;2023-09-08T11:43:54;97859.80;;;29.89;33.74
62038;BME280;47991;42.974;12.082;2023-09-08T11:46:21;97861.66;;;29.89;33.35
62038;BME280;47991;42.974;12.082;2023-09-08T11:48:48;97861.08;;;30.01;33.13
62038;BME280;47991;42.974;12.082;2023-09-08T11:51:15;97861.80;;;29.96;33.14
62038;BME280;47991;42.974;12.082;2023-09-08T11:53:42;97860.89;;;29.96;33.33
62038;BME280;47991;42.974;12.082;2023-09-08T11:56:09;97860.04;;;30.06;32.64
62038;BME280;47991;42.974;12.082;2023-09-08T11:58:37;97854.16;;;29.94;33.50
62038;BME280;47991;42.974;12.082;2023-09-08T12:01:04;97854.69;;;29.39;33.98
62038;BME280;47991;42.974;12.082;2023-09-08T12:03:31;97854.46;;;29.22;34.38
62038;BME280;47991;42.974;12.082;2023-09-08T12:05:58;97861.70;;;29.50;34.18
62038;BME280;47991;42.974;12.082;2023-09-08T12:08:26;97858.98;;;29.45;34.15
62038;BME280;47991;42.974;12.082;2023-09-08T12:10:54;97856.32;;;29.65;33.89
62038;BME280;47991;42.974;12.082;2023-09-08T12:13:22;97856.76;;;29.63;33.97
62038;BME280;47991;42.974;12.082;2023-09-08T12:15:51;97850.52;;;29.33;34.23
62038;BME280;47991;42.974;12.082;2023-09-08T12:18:18;97845.11;;;29.51;34.01
62038;BME280;47991;42.974;12.082;2023-09-08T12:20:45;97847.23;;;29.77;33.54
62038;BME280;47991;42.974;12.082;2023-09-08T12:23:20;97848.42;;;29.52;33.79
62038;BME280;47991;42.974;12.082;2023-09-08T12:25:49;97845.89;;;29.34;33.87
62038;BME280;47991;42.974;12.082;2023-09-08T12:28:18;97839.77;;;29.34;34.03
62038;BME280;47991;42.974;12.082;2023-09-08T12:30:46;97841.74;;;29.60;33.81
62038;BME280;47991;42.974;12.082;2023-09-08T12:33:14;97836.20;;;29.95;33.29
62038;BME280;47991;42.974;12.082;2023-09-08T12:35:47;97835.58;;;30.23;33.04
62038;BME280;47991;42.974;12.082;2023-09-08T12:38:18;97832.72;;;30.43;32.58
62038;BME280;47991;42.974;12.082;2023-09-08T12:40:44;97831.27;;;30.58;32.12
62038;BME280;47991;42.974;12.082;2023-09-08T12:43:11;97828.95;;;30.81;32.36
62038;BME280;47991;42.974;12.082;2023-09-08T12:45:38;97820.02;;;30.97;31.67
62038;BME280;47991;42.974;12.082;2023-09-08T12:48:05;97816.68;;;31.22;31.67
62038;BME280;47991;42.974;12.082;2023-09-08T12:50:33;97814.30;;;31.32;31.99
62038;BME280;47991;42.974;12.082;2023-09-08T12:53:00;97805.23;;;31.58;31.98
62038;BME280;47991;42.974;12.082;2023-09-08T12:55:27;97804.59;;;31.65;31.65
62038;BME280;47991;42.974;12.082;2023-09-08T12:57:54;97803.92;;;31.88;31.66
62038;BME280;47991;42.974;12.082;2023-09-08T13:00:24;97802.88;;;32.13;31.51
62038;BME280;47991;42.974;12.082;2023-09-08T13:02:52;97796.16;;;32.12;30.82
62038;BME280;47991;42.974;12.082;2023-09-08T13:05:19;97797.58;;;32.05;31.55
62038;BME280;47991;42.974;12.082;2023-09-08T13:07:46;97802.80;;;32.26;31.15